createdAt,value
2023-05-14T00:02:13.156Z,4.50
2023-05-14T00:07:35.068Z,4.18
2023-05-14T00:12:56.831Z,4.20
2023-05-14T00:18:18.621Z,4.50
2023-05-14T00:23:40.436Z,4.32
2023-05-14T00:29:02.276Z,4.10
2023-05-14T00:34:24.699Z,3.85
2023-05-14T00:39:46.461Z,4.13
2023-05-14T00:45:09.604Z,4.70
2023-05-14T00:50:31.758Z,4.70
2023-05-14T00:55:53.780Z,4.60
2023-05-14T01:01:15.667Z,4.47
2023-05-14T01:06:52.129Z,4.28
2023-05-14T01:12:16.609Z,4.47
2023-05-14T01:17:43.717Z,4.57
2023-05-14T01:23:05.654Z,4.75
2023-05-14T01:28:33.245Z,4.80
2023-05-14T01:33:57.687Z,4.50
2023-05-14T01:39:20.312Z,4.43
2023-05-14T01:44:43.200Z,4.03
2023-05-14T01:50:05.747Z,4.10
2023-05-14T01:55:27.596Z,4.15
2023-05-14T02:00:49.620Z,4.30
2023-05-14T02:06:11.778Z,4.18
2023-05-14T02:11:36.584Z,3.85
2023-05-14T02:16:58.529Z,4.40
2023-05-14T02:22:20.339Z,3.75
2023-05-14T02:27:42.131Z,3.92
2023-05-14T02:33:04.304Z,3.80
2023-05-14T02:38:26.862Z,3.83
2023-05-14T02:43:48.679Z,3.70
2023-05-14T02:49:10.448Z,3.88
2023-05-14T02:54:32.573Z,3.63
2023-05-14T02:59:54.886Z,3.33
2023-05-14T03:05:17.077Z,3.83
2023-05-14T03:10:38.895Z,3.90
2023-05-14T03:16:00.841Z,3.88
2023-05-14T03:21:22.661Z,3.22
2023-05-14T03:26:44.473Z,3.22
2023-05-14T03:32:06.943Z,3.13
2023-05-14T03:37:28.717Z,2.95
2023-05-14T03:42:50.478Z,3.00
2023-05-14T03:48:12.551Z,2.75
2023-05-14T03:53:34.384Z,3.00
2023-05-14T03:58:56.381Z,3.03
2023-05-14T04:04:18.256Z,3.00
2023-05-14T04:09:40.054Z,2.75
2023-05-14T04:15:01.866Z,2.60
2023-05-14T04:20:23.857Z,2.60
2023-05-14T04:25:46.708Z,3.08
2023-05-14T04:31:08.521Z,3.15
2023-05-14T04:36:30.353Z,3.08
2023-05-14T04:41:52.225Z,2.78
2023-05-14T04:47:14.047Z,2.88
2023-05-14T04:52:36.024Z,2.63
2023-05-14T04:57:57.856Z,3.40
2023-05-14T05:03:19.891Z,3.20
2023-05-14T05:08:41.942Z,2.70
2023-05-14T05:14:03.767Z,3.08
2023-05-14T05:19:35.760Z,3.90
2023-05-14T05:25:01.934Z,3.17
2023-05-14T05:30:23.935Z,3.33
2023-05-14T05:35:45.870Z,3.22
2023-05-14T05:41:07.793Z,3.65
2023-05-14T05:46:29.654Z,3.13
2023-05-14T05:51:51.463Z,3.10
2023-05-14T05:57:13.303Z,2.90
2023-05-14T06:02:35.228Z,2.92
2023-05-14T06:07:57.137Z,2.90
2023-05-14T06:13:18.976Z,3.10
2023-05-14T06:18:41.167Z,2.70
2023-05-14T06:24:03.081Z,3.05
2023-05-14T06:29:25.575Z,3.30
2023-05-14T06:34:47.360Z,3.40
2023-05-14T06:40:09.540Z,3.47
2023-05-14T06:45:33.205Z,4.55
2023-05-14T06:50:55.638Z,3.13
2023-05-14T06:56:17.395Z,4.22
2023-05-14T07:01:39.276Z,3.97
2023-05-14T07:07:01.149Z,3.70
2023-05-14T07:12:22.938Z,4.38
2023-05-14T07:17:45.448Z,4.43
2023-05-14T07:23:07.425Z,3.45
2023-05-14T07:28:29.289Z,4.63
2023-05-14T07:33:51.120Z,4.88
2023-05-14T07:39:12.970Z,5.72
2023-05-14T07:44:34.788Z,5.57
2023-05-14T07:49:57.721Z,6.13
2023-05-14T07:55:19.771Z,6.38
2023-05-14T08:00:41.682Z,5.95
2023-05-14T08:06:04.247Z,6.50
2023-05-14T08:11:26.453Z,6.32
2023-05-14T08:16:48.884Z,6.00
2023-05-14T08:22:10.789Z,5.70
2023-05-14T08:27:32.735Z,6.38
2023-05-14T08:32:54.522Z,6.07
2023-05-14T08:38:16.528Z,5.32
2023-05-14T08:44:12.219Z,6.38
2023-05-14T08:49:41.295Z,6.40
2023-05-14T08:55:06.702Z,7.20
2023-05-14T09:05:51.850Z,10.70
2023-05-14T09:11:13.668Z,10.60
2023-05-14T09:16:37.288Z,12.00
2023-05-14T09:22:02.653Z,11.50
2023-05-14T09:27:26.182Z,11.55
2023-05-14T09:32:49.711Z,11.73
2023-05-14T09:38:11.855Z,11.27
2023-05-14T09:43:33.758Z,10.38
2023-05-14T09:48:57.095Z,9.70
2023-05-14T09:54:18.957Z,9.77
2023-05-14T09:59:41.579Z,9.25
2023-05-14T10:05:06.245Z,9.70
2023-05-14T10:10:30.448Z,9.20
2023-05-14T10:16:02.537Z,9.48
2023-05-14T10:21:28.622Z,8.90
2023-05-14T10:26:50.733Z,9.18
2023-05-14T10:32:15.158Z,8.50
2023-05-14T10:37:37.018Z,8.45
2023-05-14T10:42:59.590Z,8.32
2023-05-14T10:48:21.611Z,8.43
2023-05-14T10:53:44.236Z,9.00
2023-05-14T10:59:06.970Z,8.93
2023-05-14T11:04:28.863Z,8.88
2023-05-14T11:09:51.726Z,9.68
2023-05-14T11:15:21.436Z,8.27
2023-05-14T11:20:43.296Z,8.65
2023-05-14T11:26:05.179Z,8.32
2023-05-14T11:31:27.945Z,9.63
2023-05-14T11:36:49.803Z,10.23
2023-05-14T11:42:14.784Z,10.65
2023-05-14T11:47:36.796Z,10.85
2023-05-14T11:52:58.824Z,11.40
2023-05-14T11:58:21.718Z,11.65
2023-05-14T12:03:43.921Z,10.77
2023-05-14T12:09:06.865Z,10.77
2023-05-14T12:14:29.031Z,10.60
2023-05-14T12:19:52.564Z,10.35
2023-05-14T12:25:14.697Z,10.25
2023-05-14T12:30:39.541Z,9.52
2023-05-14T12:36:17.584Z,8.97
2023-05-14T12:41:42.299Z,8.50
2023-05-14T12:47:04.751Z,8.63
2023-05-14T12:52:37.961Z,8.10
2023-05-14T12:58:01.662Z,8.93
2023-05-14T13:03:23.789Z,8.07
2023-05-14T13:08:45.948Z,8.00
2023-05-14T13:14:08.048Z,7.97
2023-05-14T13:19:30.349Z,8.45
2023-05-14T13:24:52.154Z,8.10
2023-05-14T13:30:14.075Z,7.93
2023-05-14T13:35:36.282Z,17.90
2023-05-14T13:41:02.718Z,18.80
2023-05-14T13:46:24.986Z,17.75
2023-05-14T13:51:47.104Z,16.45
2023-05-14T13:57:09.172Z,14.90
2023-05-14T14:02:34.245Z,13.02
2023-05-14T14:08:04.357Z,11.57
2023-05-14T14:13:34.913Z,10.52
2023-05-14T14:18:57.682Z,17.58
2023-05-14T14:24:20.094Z,24.58
2023-05-14T14:29:41.933Z,22.45
2023-05-14T14:35:03.936Z,19.13
2023-05-14T14:40:26.613Z,16.98
2023-05-14T14:45:49.181Z,15.57
2023-05-14T14:51:11.289Z,14.38
2023-05-14T14:56:33.710Z,12.38
2023-05-14T15:01:55.562Z,11.90
2023-05-14T15:07:18.894Z,10.32
2023-05-14T15:12:41.374Z,9.38
2023-05-14T15:18:04.589Z,9.48
2023-05-14T15:23:26.397Z,8.93
2023-05-14T15:28:48.185Z,8.30
2023-05-14T15:34:10.138Z,8.38
2023-05-14T15:39:32.116Z,7.88
2023-05-14T15:44:53.976Z,6.90
2023-05-14T15:50:15.816Z,7.35
2023-05-14T15:55:37.660Z,6.68
2023-05-14T16:00:59.405Z,6.28
2023-05-14T16:06:21.233Z,6.30
2023-05-14T16:11:43.020Z,6.18
2023-05-14T16:17:05.022Z,6.80
2023-05-14T16:22:27.811Z,5.38
2023-05-14T16:27:49.713Z,5.80
2023-05-14T16:33:12.169Z,6.28
2023-05-14T16:38:35.509Z,5.85
2023-05-14T16:43:58.577Z,5.47
2023-05-14T16:49:22.605Z,5.05
2023-05-14T16:54:44.372Z,6.30
2023-05-14T17:00:06.887Z,5.97
2023-05-14T17:05:29.141Z,6.00
2023-05-14T17:10:50.970Z,5.22
2023-05-14T17:16:12.833Z,5.50
2023-05-14T17:21:34.619Z,5.55
2023-05-14T17:26:56.452Z,5.30
2023-05-14T17:32:19.213Z,5.32
2023-05-14T17:37:43.022Z,4.70
2023-05-14T17:43:04.809Z,4.65
2023-05-14T17:48:26.618Z,4.43
2023-05-14T17:53:48.406Z,4.78
2023-05-14T17:59:10.273Z,4.78
2023-05-14T18:04:32.204Z,4.80
2023-05-14T18:09:54.190Z,4.35
2023-05-14T18:15:16.285Z,4.47
2023-05-14T18:20:38.080Z,5.00
2023-05-14T18:25:59.939Z,4.15
2023-05-14T18:31:22.180Z,4.43
2023-05-14T18:36:44.135Z,4.47
2023-05-14T18:42:06.249Z,5.10
2023-05-14T18:47:28.210Z,5.05
2023-05-14T18:52:50.066Z,5.00
2023-05-14T18:58:12.327Z,4.45
2023-05-14T19:03:34.374Z,4.45
2023-05-14T19:08:56.276Z,4.50
2023-05-14T19:14:18.048Z,4.85
2023-05-14T19:19:39.869Z,4.70
2023-05-14T19:25:01.821Z,4.90
2023-05-14T19:30:23.874Z,4.50
2023-05-14T19:35:46.052Z,3.47
2023-05-14T19:41:07.867Z,3.92
2023-05-14T19:46:29.811Z,4.03
2023-05-14T19:51:51.677Z,4.00
2023-05-14T19:57:13.517Z,4.05
2023-05-14T20:02:35.449Z,3.95
2023-05-14T20:07:57.264Z,4.10
2023-05-14T20:13:19.129Z,3.53
2023-05-14T20:18:43.886Z,3.65
2023-05-14T20:24:06.083Z,3.77
2023-05-14T20:29:28.001Z,3.47
2023-05-14T20:34:49.838Z,4.28
2023-05-14T20:40:14.686Z,3.40
2023-05-14T20:45:36.948Z,3.30
2023-05-14T20:50:59.005Z,3.30
2023-05-14T20:56:21.281Z,3.28
2023-05-14T21:01:43.116Z,3.70
2023-05-14T21:07:05.751Z,3.00
2023-05-14T21:12:27.515Z,3.20
2023-05-14T21:17:49.364Z,2.90
2023-05-14T21:23:11.158Z,3.10
2023-05-14T21:28:32.975Z,3.40
2023-05-14T21:33:55.039Z,2.88
2023-05-14T21:39:16.960Z,2.72
2023-05-14T21:44:38.889Z,2.65
2023-05-14T21:50:00.662Z,2.88
2023-05-14T21:55:22.952Z,3.03
2023-05-14T22:00:45.042Z,2.90
2023-05-14T22:06:07.177Z,2.83
2023-05-14T22:11:29.078Z,2.50
2023-05-14T22:16:50.952Z,3.15
2023-05-14T22:22:12.776Z,3.50
2023-05-14T22:27:34.624Z,3.33
2023-05-14T22:32:56.512Z,3.15
2023-05-14T22:38:20.176Z,4.05
2023-05-14T22:43:42.371Z,3.35
2023-05-14T22:49:04.178Z,3.95
2023-05-14T22:54:26.196Z,3.20
2023-05-14T22:59:47.967Z,3.00
2023-05-14T23:05:10.129Z,2.63
2023-05-14T23:10:32.024Z,3.13
2023-05-14T23:15:53.917Z,3.20
2023-05-14T23:21:15.952Z,3.28
2023-05-14T23:26:37.809Z,2.97
2023-05-14T23:31:59.668Z,2.90
2023-05-14T23:37:21.694Z,3.08
2023-05-14T23:42:44.650Z,3.70
2023-05-14T23:48:06.526Z,3.25
2023-05-14T23:53:28.386Z,3.30
2023-05-14T23:58:50.344Z,3.50
